sensor_id;sensor_type;location;lat;lon;timestamp;P1;durP1;ratioP1;P2;durP2;ratioP2
24713;SDS011;12820;51.580;5.010;2023-04-30T00:02:35;15.48;;;8.60;;
24713;SDS011;12820;51.580;5.010;2023-04-30T00:07:37;15.20;;;8.90;;
24713;SDS011;12820;51.580;5.010;2023-04-30T00:12:42;14.93;;;8.20;;
24713;SDS011;12820;51.580;5.010;2023-04-30T00:17:45;17.90;;;8.38;;
24713;SDS011;12820;51.580;5.010;2023-04-30T00:22:47;17.15;;;9.10;;
24713;SDS011;12820;51.580;5.010;2023-04-30T00:27:49;16.35;;;9.05;;
24713;SDS011;12820;51.580;5.010;2023-04-30T00:32:51;16.25;;;10.18;;
24713;SDS011;12820;51.580;5.010;2023-04-30T00:37:53;18.63;;;9.50;;
24713;SDS011;12820;51.580;5.010;2023-04-30T00:42:55;16.92;;;9.65;;
24713;SDS011;12820;51.580;5.010;2023-04-30T00:47:57;15.60;;;9.10;;
24713;SDS011;12820;51.580;5.010;2023-04-30T00:53:00;18.38;;;9.00;;
24713;SDS011;12820;51.580;5.010;2023-04-30T00:58:02;16.75;;;9.57;;
24713;SDS011;12820;51.580;5.010;2023-04-30T01:03:04;17.27;;;10.00;;
24713;SDS011;12820;51.580;5.010;2023-04-30T01:08:08;17.58;;;10.45;;
24713;SDS011;12820;51.580;5.010;2023-04-30T01:13:13;17.52;;;10.15;;
24713;SDS011;12820;51.580;5.010;2023-04-30T01:18:28;21.00;;;9.95;;
24713;SDS011;12820;51.580;5.010;2023-04-30T01:23:54;19.63;;;9.90;;
24713;SDS011;12820;51.580;5.010;2023-04-30T01:29:02;17.73;;;10.85;;
24713;SDS011;12820;51.580;5.010;2023-04-30T01:34:05;17.90;;;10.55;;
24713;SDS011;12820;51.580;5.010;2023-04-30T01:44:40;18.35;;;11.07;;
24713;SDS011;12820;51.580;5.010;2023-04-30T01:49:51;18.00;;;10.27;;
24713;SDS011;12820;51.580;5.010;2023-04-30T01:55:07;19.70;;;10.45;;
24713;SDS011;12820;51.580;5.010;2023-04-30T02:00:13;16.52;;;10.63;;
24713;SDS011;12820;51.580;5.010;2023-04-30T02:05:18;22.73;;;11.27;;
24713;SDS011;12820;51.580;5.010;2023-04-30T02:10:22;19.42;;;10.85;;
24713;SDS011;12820;51.580;5.010;2023-04-30T02:15:26;20.08;;;10.82;;
24713;SDS011;12820;51.580;5.010;2023-04-30T02:20:28;21.30;;;10.70;;
24713;SDS011;12820;51.580;5.010;2023-04-30T02:25:30;18.15;;;10.63;;
24713;SDS011;12820;51.580;5.010;2023-04-30T02:30:38;17.98;;;11.23;;
24713;SDS011;12820;51.580;5.010;2023-04-30T02:35:40;20.10;;;10.70;;
24713;SDS011;12820;51.580;5.010;2023-04-30T02:40:42;20.00;;;11.25;;
24713;SDS011;12820;51.580;5.010;2023-04-30T02:45:44;18.27;;;10.98;;
24713;SDS011;12820;51.580;5.010;2023-04-30T02:50:46;21.20;;;11.80;;
24713;SDS011;12820;51.580;5.010;2023-04-30T02:55:48;19.27;;;11.95;;
24713;SDS011;12820;51.580;5.010;2023-04-30T03:00:51;20.75;;;11.73;;
24713;SDS011;12820;51.580;5.010;2023-04-30T03:05:53;20.25;;;11.68;;
24713;SDS011;12820;51.580;5.010;2023-04-30T03:10:57;19.10;;;11.15;;
24713;SDS011;12820;51.580;5.010;2023-04-30T03:16:00;21.77;;;11.93;;
24713;SDS011;12820;51.580;5.010;2023-04-30T03:21:05;21.45;;;12.20;;
24713;SDS011;12820;51.580;5.010;2023-04-30T03:26:07;20.17;;;11.50;;
24713;SDS011;12820;51.580;5.010;2023-04-30T03:31:09;20.27;;;11.00;;
24713;SDS011;12820;51.580;5.010;2023-04-30T03:36:11;20.70;;;11.85;;
24713;SDS011;12820;51.580;5.010;2023-04-30T03:41:14;19.83;;;11.70;;
24713;SDS011;12820;51.580;5.010;2023-04-30T03:46:16;19.13;;;11.27;;
24713;SDS011;12820;51.580;5.010;2023-04-30T03:51:18;20.98;;;12.07;;
24713;SDS011;12820;51.580;5.010;2023-04-30T03:56:21;18.70;;;11.48;;
24713;SDS011;12820;51.580;5.010;2023-04-30T04:01:23;21.10;;;11.93;;
24713;SDS011;12820;51.580;5.010;2023-04-30T04:06:26;19.20;;;12.30;;
24713;SDS011;12820;51.580;5.010;2023-04-30T04:11:29;22.83;;;12.63;;
24713;SDS011;12820;51.580;5.010;2023-04-30T04:16:31;22.77;;;11.98;;
24713;SDS011;12820;51.580;5.010;2023-04-30T04:21:34;22.45;;;11.60;;
24713;SDS011;12820;51.580;5.010;2023-04-30T04:26:41;17.45;;;11.65;;
24713;SDS011;12820;51.580;5.010;2023-04-30T04:31:43;20.80;;;11.45;;
24713;SDS011;12820;51.580;5.010;2023-04-30T04:36:46;22.67;;;11.48;;
24713;SDS011;12820;51.580;5.010;2023-04-30T04:41:49;21.27;;;11.45;;
24713;SDS011;12820;51.580;5.010;2023-04-30T04:46:51;21.90;;;12.05;;
24713;SDS011;12820;51.580;5.010;2023-04-30T04:51:54;20.17;;;11.95;;
24713;SDS011;12820;51.580;5.010;2023-04-30T04:56:56;20.60;;;12.88;;
24713;SDS011;12820;51.580;5.010;2023-04-30T05:01:59;22.20;;;12.40;;
24713;SDS011;12820;51.580;5.010;2023-04-30T05:07:01;25.50;;;13.95;;
24713;SDS011;12820;51.580;5.010;2023-04-30T05:12:05;23.45;;;13.52;;
24713;SDS011;12820;51.580;5.010;2023-04-30T05:17:07;21.98;;;13.07;;
24713;SDS011;12820;51.580;5.010;2023-04-30T05:22:09;19.48;;;11.90;;
24713;SDS011;12820;51.580;5.010;2023-04-30T05:27:11;21.30;;;13.05;;
24713;SDS011;12820;51.580;5.010;2023-04-30T05:32:13;21.88;;;12.73;;
24713;SDS011;12820;51.580;5.010;2023-04-30T05:37:15;20.05;;;12.00;;
24713;SDS011;12820;51.580;5.010;2023-04-30T05:42:20;20.75;;;12.38;;
24713;SDS011;12820;51.580;5.010;2023-04-30T05:47:22;21.92;;;13.15;;
24713;SDS011;12820;51.580;5.010;2023-04-30T05:52:24;20.38;;;12.32;;
24713;SDS011;12820;51.580;5.010;2023-04-30T05:57:26;20.08;;;12.32;;
24713;SDS011;12820;51.580;5.010;2023-04-30T06:02:28;19.58;;;11.80;;
24713;SDS011;12820;51.580;5.010;2023-04-30T06:07:30;18.33;;;11.57;;
24713;SDS011;12820;51.580;5.010;2023-04-30T06:12:32;21.52;;;11.43;;
24713;SDS011;12820;51.580;5.010;2023-04-30T06:17:35;19.92;;;10.65;;
24713;SDS011;12820;51.580;5.010;2023-04-30T06:22:37;16.15;;;10.60;;
24713;SDS011;12820;51.580;5.010;2023-04-30T06:27:39;20.98;;;11.63;;
24713;SDS011;12820;51.580;5.010;2023-04-30T06:32:41;19.52;;;11.25;;
24713;SDS011;12820;51.580;5.010;2023-04-30T06:37:43;20.30;;;11.68;;
24713;SDS011;12820;51.580;5.010;2023-04-30T06:42:45;18.33;;;11.15;;
24713;SDS011;12820;51.580;5.010;2023-04-30T06:47:48;17.17;;;11.48;;
24713;SDS011;12820;51.580;5.010;2023-04-30T06:52:50;18.42;;;11.48;;
24713;SDS011;12820;51.580;5.010;2023-04-30T06:57:52;19.38;;;11.93;;
24713;SDS011;12820;51.580;5.010;2023-04-30T07:02:55;19.83;;;12.23;;
24713;SDS011;12820;51.580;5.010;2023-04-30T07:07:59;17.17;;;11.95;;
24713;SDS011;12820;51.580;5.010;2023-04-30T07:13:02;21.00;;;12.20;;
24713;SDS011;12820;51.580;5.010;2023-04-30T07:18:04;16.60;;;10.38;;
24713;SDS011;12820;51.580;5.010;2023-04-30T07:23:06;19.08;;;11.85;;
24713;SDS011;12820;51.580;5.010;2023-04-30T07:28:08;21.35;;;12.73;;
24713;SDS011;12820;51.580;5.010;2023-04-30T07:33:11;17.48;;;11.55;;
24713;SDS011;12820;51.580;5.010;2023-04-30T07:38:13;17.90;;;11.43;;
24713;SDS011;12820;51.580;5.010;2023-04-30T07:43:15;17.33;;;11.85;;
24713;SDS011;12820;51.580;5.010;2023-04-30T07:48:18;18.33;;;11.50;;
24713;SDS011;12820;51.580;5.010;2023-04-30T07:53:20;17.10;;;11.13;;
24713;SDS011;12820;51.580;5.010;2023-04-30T07:58:22;17.55;;;11.25;;
24713;SDS011;12820;51.580;5.010;2023-04-30T08:03:24;15.90;;;10.23;;
24713;SDS011;12820;51.580;5.010;2023-04-30T08:08:26;15.55;;;11.05;;
24713;SDS011;12820;51.580;5.010;2023-04-30T08:13:28;16.65;;;10.20;;
24713;SDS011;12820;51.580;5.010;2023-04-30T08:18:31;15.65;;;9.55;;
24713;SDS011;12820;51.580;5.010;2023-04-30T08:23:33;16.38;;;9.90;;
24713;SDS011;12820;51.580;5.010;2023-04-30T08:28:35;16.35;;;9.40;;
24713;SDS011;12820;51.580;5.010;2023-04-30T08:33:37;10.77;;;6.97;;
24713;SDS011;12820;51.580;5.010;2023-04-30T08:38:39;12.85;;;7.30;;
24713;SDS011;12820;51.580;5.010;2023-04-30T08:43:42;13.75;;;8.23;;
24713;SDS011;12820;51.580;5.010;2023-04-30T08:48:47;13.52;;;8.50;;
24713;SDS011;12820;51.580;5.010;2023-04-30T08:53:49;13.40;;;7.78;;
24713;SDS011;12820;51.580;5.010;2023-04-30T08:58:53;13.85;;;7.50;;
24713;SDS011;12820;51.580;5.010;2023-04-30T09:03:56;13.18;;;8.55;;
24713;SDS011;12820;51.580;5.010;2023-04-30T09:08:58;12.80;;;7.53;;
24713;SDS011;12820;51.580;5.010;2023-04-30T09:14:10;8.30;;;4.40;;
24713;SDS011;12820;51.580;5.010;2023-04-30T09:19:29;9.27;;;5.05;;
24713;SDS011;12820;51.580;5.010;2023-04-30T09:24:44;8.07;;;4.30;;
24713;SDS011;12820;51.580;5.010;2023-04-30T09:29:48;10.60;;;6.32;;
24713;SDS011;12820;51.580;5.010;2023-04-30T09:34:50;7.93;;;4.70;;
24713;SDS011;12820;51.580;5.010;2023-04-30T09:39:53;56.53;;;7.38;;
24713;SDS011;12820;51.580;5.010;2023-04-30T09:44:56;7.88;;;3.05;;
24713;SDS011;12820;51.580;5.010;2023-04-30T09:49:58;6.47;;;4.15;;
24713;SDS011;12820;51.580;5.010;2023-04-30T09:55:01;9.27;;;4.57;;
24713;SDS011;12820;51.580;5.010;2023-04-30T10:00:03;12.98;;;6.97;;
24713;SDS011;12820;51.580;5.010;2023-04-30T10:05:09;11.60;;;5.95;;
24713;SDS011;12820;51.580;5.010;2023-04-30T10:10:12;10.65;;;6.35;;
24713;SDS011;12820;51.580;5.010;2023-04-30T10:20:29;9.88;;;6.72;;
24713;SDS011;12820;51.580;5.010;2023-04-30T10:25:32;9.82;;;6.30;;
24713;SDS011;12820;51.580;5.010;2023-04-30T10:30:34;11.18;;;6.35;;
24713;SDS011;12820;51.580;5.010;2023-04-30T10:35:40;9.80;;;7.22;;
24713;SDS011;12820;51.580;5.010;2023-04-30T10:40:50;10.38;;;5.10;;
24713;SDS011;12820;51.580;5.010;2023-04-30T10:45:57;8.43;;;5.53;;
24713;SDS011;12820;51.580;5.010;2023-04-30T10:50:59;7.60;;;4.55;;
24713;SDS011;12820;51.580;5.010;2023-04-30T10:56:03;9.18;;;5.60;;
24713;SDS011;12820;51.580;5.010;2023-04-30T11:01:11;12.52;;;5.55;;
24713;SDS011;12820;51.580;5.010;2023-04-30T11:06:15;9.50;;;6.13;;
24713;SDS011;12820;51.580;5.010;2023-04-30T11:11:21;8.45;;;6.30;;
24713;SDS011;12820;51.580;5.010;2023-04-30T11:16:28;7.75;;;5.60;;
24713;SDS011;12820;51.580;5.010;2023-04-30T11:21:31;9.73;;;4.95;;
24713;SDS011;12820;51.580;5.010;2023-04-30T11:27:01;9.00;;;6.60;;
24713;SDS011;12820;51.580;5.010;2023-04-30T11:32:09;7.13;;;4.43;;
24713;SDS011;12820;51.580;5.010;2023-04-30T11:37:18;9.32;;;6.40;;
24713;SDS011;12820;51.580;5.010;2023-04-30T11:42:21;7.63;;;5.63;;
24713;SDS011;12820;51.580;5.010;2023-04-30T11:47:24;7.90;;;5.70;;
24713;SDS011;12820;51.580;5.010;2023-04-30T11:52:26;8.57;;;5.22;;
24713;SDS011;12820;51.580;5.010;2023-04-30T11:57:33;9.50;;;5.68;;
24713;SDS011;12820;51.580;5.010;2023-04-30T12:02:36;8.57;;;5.35;;
24713;SDS011;12820;51.580;5.010;2023-04-30T12:07:38;10.10;;;7.72;;
24713;SDS011;12820;51.580;5.010;2023-04-30T12:12:43;7.47;;;4.65;;
24713;SDS011;12820;51.580;5.010;2023-04-30T12:17:46;6.30;;;3.88;;
24713;SDS011;12820;51.580;5.010;2023-04-30T12:22:48;9.63;;;4.63;;
24713;SDS011;12820;51.580;5.010;2023-04-30T12:27:51;5.65;;;3.83;;
24713;SDS011;12820;51.580;5.010;2023-04-30T12:32:55;6.47;;;3.95;;
24713;SDS011;12820;51.580;5.010;2023-04-30T12:38:03;5.93;;;3.90;;
24713;SDS011;12820;51.580;5.010;2023-04-30T12:43:07;5.47;;;3.42;;
24713;SDS011;12820;51.580;5.010;2023-04-30T12:48:10;7.25;;;3.90;;
24713;SDS011;12820;51.580;5.010;2023-04-30T12:53:12;4.40;;;2.60;;
24713;SDS011;12820;51.580;5.010;2023-04-30T12:58:14;3.90;;;2.38;;
24713;SDS011;12820;51.580;5.010;2023-04-30T13:03:18;4.47;;;2.53;;
24713;SDS011;12820;51.580;5.010;2023-04-30T13:08:21;13.57;;;7.30;;
24713;SDS011;12820;51.580;5.010;2023-04-30T13:13:24;5.50;;;2.90;;
24713;SDS011;12820;51.580;5.010;2023-04-30T13:18:27;3.47;;;2.10;;
24713;SDS011;12820;51.580;5.010;2023-04-30T13:23:29;4.40;;;2.38;;
24713;SDS011;12820;51.580;5.010;2023-04-30T13:28:39;5.88;;;2.30;;
24713;SDS011;12820;51.580;5.010;2023-04-30T13:33:41;4.40;;;2.65;;
24713;SDS011;12820;51.580;5.010;2023-04-30T13:38:44;4.47;;;2.30;;
24713;SDS011;12820;51.580;5.010;2023-04-30T13:43:47;3.38;;;2.17;;
24713;SDS011;12820;51.580;5.010;2023-04-30T13:48:49;4.70;;;2.55;;
24713;SDS011;12820;51.580;5.010;2023-04-30T13:53:53;5.28;;;2.38;;
24713;SDS011;12820;51.580;5.010;2023-04-30T13:58:55;3.88;;;2.10;;
24713;SDS011;12820;51.580;5.010;2023-04-30T14:03:57;4.25;;;2.30;;
24713;SDS011;12820;51.580;5.010;2023-04-30T14:09:00;5.10;;;2.45;;
24713;SDS011;12820;51.580;5.010;2023-04-30T14:14:02;3.08;;;1.58;;
24713;SDS011;12820;51.580;5.010;2023-04-30T14:19:04;4.63;;;2.03;;
24713;SDS011;12820;51.580;5.010;2023-04-30T14:24:07;3.30;;;1.90;;
24713;SDS011;12820;51.580;5.010;2023-04-30T14:29:10;3.83;;;2.10;;
24713;SDS011;12820;51.580;5.010;2023-04-30T14:34:12;3.55;;;1.75;;
24713;SDS011;12820;51.580;5.010;2023-04-30T14:39:15;2.60;;;1.50;;
24713;SDS011;12820;51.580;5.010;2023-04-30T14:44:17;5.38;;;1.90;;
24713;SDS011;12820;51.580;5.010;2023-04-30T14:49:19;3.70;;;1.58;;
24713;SDS011;12820;51.580;5.010;2023-04-30T14:54:21;3.83;;;1.98;;
24713;SDS011;12820;51.580;5.010;2023-04-30T14:59:23;3.75;;;1.85;;
24713;SDS011;12820;51.580;5.010;2023-04-30T15:04:25;3.50;;;1.80;;
24713;SDS011;12820;51.580;5.010;2023-04-30T15:09:27;4.47;;;1.70;;
24713;SDS011;12820;51.580;5.010;2023-04-30T15:14:30;4.28;;;1.90;;
24713;SDS011;12820;51.580;5.010;2023-04-30T15:19:32;4.97;;;1.73;;
24713;SDS011;12820;51.580;5.010;2023-04-30T15:24:34;4.00;;;1.52;;
24713;SDS011;12820;51.580;5.010;2023-04-30T15:29:37;7.05;;;4.68;;
24713;SDS011;12820;51.580;5.010;2023-04-30T15:34:41;2.90;;;1.52;;
24713;SDS011;12820;51.580;5.010;2023-04-30T15:39:43;5.32;;;2.30;;
24713;SDS011;12820;51.580;5.010;2023-04-30T15:44:45;4.35;;;1.90;;
24713;SDS011;12820;51.580;5.010;2023-04-30T15:49:47;3.38;;;1.65;;
24713;SDS011;12820;51.580;5.010;2023-04-30T15:54:49;3.50;;;1.77;;
24713;SDS011;12820;51.580;5.010;2023-04-30T15:59:52;4.40;;;1.90;;
24713;SDS011;12820;51.580;5.010;2023-04-30T16:04:54;2.97;;;1.70;;
24713;SDS011;12820;51.580;5.010;2023-04-30T16:09:57;5.53;;;2.50;;
24713;SDS011;12820;51.580;5.010;2023-04-30T16:15:00;4.78;;;2.10;;
24713;SDS011;12820;51.580;5.010;2023-04-30T16:20:02;3.97;;;2.05;;
24713;SDS011;12820;51.580;5.010;2023-04-30T16:25:04;3.72;;;1.63;;
24713;SDS011;12820;51.580;5.010;2023-04-30T16:30:09;6.03;;;1.98;;
24713;SDS011;12820;51.580;5.010;2023-04-30T16:35:11;4.05;;;2.00;;
24713;SDS011;12820;51.580;5.010;2023-04-30T16:40:13;3.08;;;1.80;;
24713;SDS011;12820;51.580;5.010;2023-04-30T16:45:15;5.25;;;2.58;;
24713;SDS011;12820;51.580;5.010;2023-04-30T16:50:18;4.35;;;2.03;;
24713;SDS011;12820;51.580;5.010;2023-04-30T16:55:20;4.13;;;2.08;;
24713;SDS011;12820;51.580;5.010;2023-04-30T17:00:22;3.10;;;1.70;;
24713;SDS011;12820;51.580;5.010;2023-04-30T17:05:24;5.70;;;1.70;;
24713;SDS011;12820;51.580;5.010;2023-04-30T17:10:27;4.32;;;1.77;;
24713;SDS011;12820;51.580;5.010;2023-04-30T17:15:30;4.82;;;1.80;;
24713;SDS011;12820;51.580;5.010;2023-04-30T17:20:34;4.13;;;1.92;;
24713;SDS011;12820;51.580;5.010;2023-04-30T17:25:36;6.10;;;2.00;;
24713;SDS011;12820;51.580;5.010;2023-04-30T17:30:39;5.00;;;1.80;;
24713;SDS011;12820;51.580;5.010;2023-04-30T17:35:42;3.88;;;1.58;;
24713;SDS011;12820;51.580;5.010;2023-04-30T17:40:44;3.95;;;1.70;;
24713;SDS011;12820;51.580;5.010;2023-04-30T17:45:46;3.22;;;1.58;;
24713;SDS011;12820;51.580;5.010;2023-04-30T17:50:48;4.45;;;1.70;;
24713;SDS011;12820;51.580;5.010;2023-04-30T17:55:51;4.40;;;1.77;;
24713;SDS011;12820;51.580;5.010;2023-04-30T18:00:53;5.55;;;2.75;;
24713;SDS011;12820;51.580;5.010;2023-04-30T18:05:57;3.70;;;1.60;;
24713;SDS011;12820;51.580;5.010;2023-04-30T18:10:59;5.65;;;1.83;;
24713;SDS011;12820;51.580;5.010;2023-04-30T18:16:03;3.97;;;1.85;;
24713;SDS011;12820;51.580;5.010;2023-04-30T18:21:06;4.35;;;1.90;;
24713;SDS011;12820;51.580;5.010;2023-04-30T18:26:09;5.18;;;2.00;;
24713;SDS011;12820;51.580;5.010;2023-04-30T18:31:11;4.85;;;1.80;;
24713;SDS011;12820;51.580;5.010;2023-04-30T18:36:14;4.90;;;1.85;;
24713;SDS011;12820;51.580;5.010;2023-04-30T18:41:16;6.07;;;2.00;;
24713;SDS011;12820;51.580;5.010;2023-04-30T18:46:18;5.30;;;2.15;;
24713;SDS011;12820;51.580;5.010;2023-04-30T18:51:20;4.90;;;1.88;;
24713;SDS011;12820;51.580;5.010;2023-04-30T18:56:22;4.65;;;2.03;;
24713;SDS011;12820;51.580;5.010;2023-04-30T19:01:25;4.90;;;1.70;;
24713;SDS011;12820;51.580;5.010;2023-04-30T19:06:28;4.95;;;1.80;;
24713;SDS011;12820;51.580;5.010;2023-04-30T19:11:31;4.65;;;2.10;;
24713;SDS011;12820;51.580;5.010;2023-04-30T19:16:36;3.58;;;1.67;;
24713;SDS011;12820;51.580;5.010;2023-04-30T19:21:38;6.00;;;1.80;;
24713;SDS011;12820;51.580;5.010;2023-04-30T19:26:40;4.75;;;1.52;;
24713;SDS011;12820;51.580;5.010;2023-04-30T19:31:43;3.22;;;1.40;;
24713;SDS011;12820;51.580;5.010;2023-04-30T19:36:46;4.40;;;1.30;;
24713;SDS011;12820;51.580;5.010;2023-04-30T19:41:48;5.15;;;1.60;;
24713;SDS011;12820;51.580;5.010;2023-04-30T19:46:50;5.60;;;1.95;;
24713;SDS011;12820;51.580;5.010;2023-04-30T19:51:52;7.15;;;2.50;;
24713;SDS011;12820;51.580;5.010;2023-04-30T19:56:55;9.32;;;2.78;;
24713;SDS011;12820;51.580;5.010;2023-04-30T20:01:58;6.07;;;2.28;;
24713;SDS011;12820;51.580;5.010;2023-04-30T20:07:01;5.30;;;1.80;;
24713;SDS011;12820;51.580;5.010;2023-04-30T20:12:03;5.50;;;2.30;;
24713;SDS011;12820;51.580;5.010;2023-04-30T20:17:05;6.53;;;2.70;;
24713;SDS011;12820;51.580;5.010;2023-04-30T20:22:07;5.28;;;2.40;;
24713;SDS011;12820;51.580;5.010;2023-04-30T20:27:13;4.13;;;2.00;;
24713;SDS011;12820;51.580;5.010;2023-04-30T20:32:15;5.47;;;1.83;;
24713;SDS011;12820;51.580;5.010;2023-04-30T20:37:18;7.25;;;2.00;;
24713;SDS011;12820;51.580;5.010;2023-04-30T20:42:20;5.30;;;1.90;;
24713;SDS011;12820;51.580;5.010;2023-04-30T20:47:22;5.78;;;1.85;;
24713;SDS011;12820;51.580;5.010;2023-04-30T20:52:24;5.82;;;2.13;;
24713;SDS011;12820;51.580;5.010;2023-04-30T20:57:27;5.35;;;1.88;;
24713;SDS011;12820;51.580;5.010;2023-04-30T21:02:29;4.35;;;1.80;;
24713;SDS011;12820;51.580;5.010;2023-04-30T21:07:31;5.20;;;2.08;;
24713;SDS011;12820;51.580;5.010;2023-04-30T21:12:35;4.60;;;2.13;;
24713;SDS011;12820;51.580;5.010;2023-04-30T21:17:37;4.55;;;1.88;;
24713;SDS011;12820;51.580;5.010;2023-04-30T21:22:39;6.28;;;2.17;;
24713;SDS011;12820;51.580;5.010;2023-04-30T21:27:41;5.40;;;2.30;;
24713;SDS011;12820;51.580;5.010;2023-04-30T21:32:44;4.60;;;2.13;;
24713;SDS011;12820;51.580;5.010;2023-04-30T21:37:49;6.53;;;2.30;;
24713;SDS011;12820;51.580;5.010;2023-04-30T21:42:51;6.35;;;2.20;;
24713;SDS011;12820;51.580;5.010;2023-04-30T21:47:53;5.82;;;2.60;;
24713;SDS011;12820;51.580;5.010;2023-04-30T21:52:56;5.00;;;2.50;;
24713;SDS011;12820;51.580;5.010;2023-04-30T21:57:58;5.68;;;2.10;;
24713;SDS011;12820;51.580;5.010;2023-04-30T22:03:00;7.32;;;2.42;;
24713;SDS011;12820;51.580;5.010;2023-04-30T22:08:02;5.88;;;2.85;;
24713;SDS011;12820;51.580;5.010;2023-04-30T22:13:06;8.85;;;2.50;;
24713;SDS011;12820;51.580;5.010;2023-04-30T22:18:08;4.35;;;2.35;;
24713;SDS011;12820;51.580;5.010;2023-04-30T22:23:10;5.10;;;2.20;;
24713;SDS011;12820;51.580;5.010;2023-04-30T22:28:12;6.00;;;2.63;;
24713;SDS011;12820;51.580;5.010;2023-04-30T22:33:17;7.38;;;2.70;;
24713;SDS011;12820;51.580;5.010;2023-04-30T22:38:21;6.70;;;2.65;;
24713;SDS011;12820;51.580;5.010;2023-04-30T22:43:23;7.88;;;2.75;;
24713;SDS011;12820;51.580;5.010;2023-04-30T22:48:25;6.70;;;2.60;;
24713;SDS011;12820;51.580;5.010;2023-04-30T22:53:28;5.75;;;2.75;;
24713;SDS011;12820;51.580;5.010;2023-04-30T22:58:30;6.68;;;2.90;;
24713;SDS011;12820;51.580;5.010;2023-04-30T23:03:32;6.43;;;2.67;;
24713;SDS011;12820;51.580;5.010;2023-04-30T23:08:34;6.97;;;2.35;;
24713;SDS011;12820;51.580;5.010;2023-04-30T23:13:37;8.73;;;2.70;;
24713;SDS011;12820;51.580;5.010;2023-04-30T23:18:40;6.10;;;2.55;;
24713;SDS011;12820;51.580;5.010;2023-04-30T23:23:42;6.53;;;2.53;;
24713;SDS011;12820;51.580;5.010;2023-04-30T23:28:44;7.15;;;2.55;;
24713;SDS011;12820;51.580;5.010;2023-04-30T23:33:46;8.98;;;2.78;;
24713;SDS011;12820;51.580;5.010;2023-04-30T23:38:48;9.95;;;2.63;;
24713;SDS011;12820;51.580;5.010;2023-04-30T23:43:50;11.77;;;2.80;;
24713;SDS011;12820;51.580;5.010;2023-04-30T23:48:52;6.75;;;2.78;;
24713;SDS011;12820;51.580;5.010;2023-04-30T23:53:55;5.20;;;2.13;;
24713;SDS011;12820;51.580;5.010;2023-04-30T23:58:57;11.02;;;2.72;;
